createdAt,value
2018-03-11T00:00:04.298Z,20.41
2018-03-11T00:00:35.922Z,20.40
2018-03-11T00:01:07.550Z,20.45
2018-03-11T00:01:39.178Z,20.46
2018-03-11T00:02:10.846Z,20.45
2018-03-11T00:02:42.470Z,20.49
2018-03-11T00:03:14.275Z,20.50
2018-03-11T00:03:45.954Z,20.48
2018-03-11T00:04:17.585Z,20.49
2018-03-11T00:04:49.315Z,20.49
2018-03-11T00:05:20.950Z,20.50
2018-03-11T00:05:52.573Z,20.50
2018-03-11T00:06:24.202Z,20.47
2018-03-11T00:06:55.826Z,20.46
2018-03-11T00:07:27.455Z,20.48
2018-03-11T00:07:59.081Z,20.49
2018-03-11T00:08:30.702Z,20.48
2018-03-11T00:09:02.472Z,20.48
2018-03-11T00:09:34.118Z,20.51
2018-03-11T00:10:05.748Z,20.48
2018-03-11T00:10:37.374Z,20.48
2018-03-11T00:11:09.001Z,20.48
2018-03-11T00:11:40.626Z,20.47
2018-03-11T00:12:12.290Z,20.47
2018-03-11T00:12:43.954Z,20.47
2018-03-11T00:13:15.578Z,20.47
2018-03-11T00:13:47.257Z,20.48
2018-03-11T00:14:18.887Z,20.48
2018-03-11T00:14:50.510Z,20.49
2018-03-11T00:15:22.139Z,20.50
2018-03-11T00:15:53.770Z,20.49
2018-03-11T00:16:25.434Z,20.50
2018-03-11T00:16:57.061Z,20.49
2018-03-11T00:17:28.687Z,20.50
2018-03-11T00:18:00.319Z,20.52
2018-03-11T00:18:31.999Z,20.51
2018-03-11T00:19:03.626Z,20.53
2018-03-11T00:19:35.254Z,20.50
2018-03-11T00:20:06.883Z,20.50
2018-03-11T00:20:38.514Z,20.50
2018-03-11T00:21:10.142Z,20.49
2018-03-11T00:21:41.771Z,20.49
2018-03-11T00:22:13.394Z,20.48
2018-03-11T00:22:45.018Z,20.50
2018-03-11T00:23:16.646Z,20.50
2018-03-11T00:23:48.314Z,20.47
2018-03-11T00:24:19.939Z,20.49
2018-03-11T00:24:51.561Z,20.50
2018-03-11T00:25:23.186Z,20.51
2018-03-11T00:25:54.814Z,20.51
2018-03-11T00:26:26.447Z,20.50
2018-03-11T00:26:58.078Z,20.50
2018-03-11T00:27:29.698Z,20.49
2018-03-11T00:28:01.322Z,20.51
2018-03-11T00:28:32.946Z,20.52
2018-03-11T00:29:04.618Z,20.51
2018-03-11T00:29:36.241Z,20.51
2018-03-11T00:30:07.874Z,20.49
2018-03-11T00:30:39.502Z,20.48
2018-03-11T00:31:11.129Z,20.44
2018-03-11T00:31:42.802Z,20.43
2018-03-11T00:32:14.430Z,20.45
2018-03-11T00:32:46.058Z,20.43
2018-03-11T00:33:17.681Z,20.44
2018-03-11T00:33:49.302Z,20.44
2018-03-11T00:34:20.925Z,20.44
2018-03-11T00:34:52.554Z,20.43
2018-03-11T00:35:24.185Z,20.43
2018-03-11T00:35:55.810Z,20.44
2018-03-11T00:36:27.433Z,20.43
2018-03-11T00:36:59.064Z,20.32
2018-03-11T00:37:30.690Z,20.42
2018-03-11T00:38:02.313Z,20.43
2018-03-11T00:38:33.962Z,20.43
2018-03-11T00:39:05.645Z,20.44
2018-03-11T00:39:37.266Z,20.45
2018-03-11T00:40:08.890Z,20.43
2018-03-11T00:40:40.518Z,20.40
2018-03-11T00:41:12.142Z,20.47
2018-03-11T00:41:43.772Z,20.47
2018-03-11T00:42:15.408Z,20.47
2018-03-11T00:42:47.033Z,20.46
2018-03-11T00:43:18.661Z,20.45
2018-03-11T00:43:50.331Z,20.44
2018-03-11T00:44:21.953Z,20.44
2018-03-11T00:44:53.582Z,20.45
2018-03-11T00:45:25.210Z,20.48
2018-03-11T00:45:56.833Z,20.47
2018-03-11T00:46:28.486Z,20.45
2018-03-11T00:47:00.110Z,20.46
2018-03-11T00:47:31.738Z,20.46
2018-03-11T00:48:03.402Z,20.45
2018-03-11T00:48:35.030Z,20.44
2018-03-11T00:49:06.654Z,20.45
2018-03-11T00:49:38.274Z,20.45
2018-03-11T00:50:09.947Z,20.46
2018-03-11T00:50:41.582Z,20.45
2018-03-11T00:51:13.215Z,20.45
2018-03-11T00:51:44.842Z,20.46
2018-03-11T00:52:16.470Z,20.42
2018-03-11T00:52:48.093Z,20.43
2018-03-11T00:53:19.721Z,20.43
2018-03-11T00:53:51.352Z,20.47
2018-03-11T00:54:22.977Z,20.50
2018-03-11T00:54:54.606Z,20.47
2018-03-11T00:55:26.274Z,20.43
2018-03-11T00:55:57.898Z,20.38
2018-03-11T00:56:29.521Z,20.34
2018-03-11T00:57:01.145Z,20.32
2018-03-11T00:57:32.781Z,20.29
2018-03-11T00:58:04.406Z,20.26
2018-03-11T00:58:36.034Z,20.25
2018-03-11T00:59:07.661Z,20.27
2018-03-11T00:59:39.291Z,20.24
2018-03-11T01:00:10.923Z,20.25
2018-03-11T01:00:42.545Z,20.25
2018-03-11T01:01:14.818Z,20.25
2018-03-11T01:01:46.455Z,20.28
2018-03-11T01:02:18.078Z,20.28
2018-03-11T01:02:49.702Z,20.28
2018-03-11T01:03:21.329Z,20.29
2018-03-11T01:03:52.958Z,20.29
2018-03-11T01:04:24.647Z,20.30
2018-03-11T01:04:56.281Z,20.31
2018-03-11T01:05:27.910Z,20.32
2018-03-11T01:05:59.537Z,20.33
2018-03-11T01:06:31.167Z,20.33
2018-03-11T01:07:02.798Z,20.33
2018-03-11T01:07:34.423Z,20.33
2018-03-11T01:08:06.053Z,20.30
2018-03-11T01:08:37.674Z,20.31
2018-03-11T01:09:09.301Z,20.32
2018-03-11T01:09:40.978Z,20.33
2018-03-11T01:10:12.602Z,20.30
2018-03-11T01:10:44.225Z,20.29
2018-03-11T01:11:15.846Z,20.29
2018-03-11T01:11:47.474Z,20.30
2018-03-11T01:12:19.102Z,20.31
2018-03-11T01:12:50.723Z,20.30
2018-03-11T01:13:22.373Z,20.31
2018-03-11T01:13:54.007Z,20.32
2018-03-11T01:14:25.646Z,20.31
2018-03-11T01:14:57.330Z,20.33
2018-03-11T01:15:28.957Z,20.33
2018-03-11T01:16:00.587Z,20.33
2018-03-11T01:16:32.214Z,20.31
2018-03-11T01:17:03.838Z,20.32
2018-03-11T01:17:35.461Z,20.31
2018-03-11T01:18:07.086Z,20.33
2018-03-11T01:18:38.759Z,20.31
2018-03-11T01:19:10.387Z,20.36
2018-03-11T01:19:42.021Z,20.35
2018-03-11T01:20:13.651Z,20.32
2018-03-11T01:20:45.274Z,20.29
2018-03-11T01:21:16.906Z,20.30
2018-03-11T01:21:48.532Z,20.28
2018-03-11T01:22:20.166Z,20.29
2018-03-11T01:22:51.839Z,20.29
2018-03-11T01:23:23.471Z,20.30
2018-03-11T01:23:55.102Z,20.30
2018-03-11T01:24:26.733Z,20.29
2018-03-11T01:24:58.358Z,20.27
2018-03-11T01:25:29.982Z,20.29
2018-03-11T01:26:01.610Z,20.29
2018-03-11T01:26:33.238Z,20.31
2018-03-11T01:27:04.861Z,20.30
2018-03-11T01:27:36.491Z,20.29
2018-03-11T01:28:08.167Z,20.30
2018-03-11T01:28:39.790Z,20.31
2018-03-11T01:29:11.419Z,20.31
2018-03-11T01:29:43.041Z,20.31
2018-03-11T01:30:14.671Z,20.31
2018-03-11T01:30:46.297Z,20.30
2018-03-11T01:31:17.926Z,20.30
2018-03-11T01:31:49.555Z,20.29
2018-03-11T01:32:21.178Z,20.30
2018-03-11T01:32:52.811Z,20.29
2018-03-11T01:33:24.482Z,20.29
2018-03-11T01:33:56.105Z,20.30
2018-03-11T01:34:27.734Z,20.29
2018-03-11T01:34:59.363Z,20.28
2018-03-11T01:35:30.998Z,20.29
2018-03-11T01:36:02.630Z,20.26
2018-03-11T01:36:34.262Z,20.28
2018-03-11T01:37:05.894Z,20.27
2018-03-11T01:37:37.522Z,20.28
2018-03-11T01:38:09.189Z,20.26
2018-03-11T01:38:40.822Z,20.25
2018-03-11T01:39:12.454Z,20.28
2018-03-11T01:39:44.090Z,20.29
2018-03-11T01:40:15.767Z,20.28
2018-03-11T01:40:47.394Z,20.27
2018-03-11T01:41:19.027Z,20.28
2018-03-11T01:41:50.654Z,20.28
2018-03-11T01:42:22.278Z,20.29
2018-03-11T01:42:53.910Z,20.29
2018-03-11T01:43:25.538Z,20.30
2018-03-11T01:43:57.161Z,20.28
2018-03-11T01:44:28.786Z,20.30
2018-03-11T01:45:00.410Z,20.32
2018-03-11T01:45:32.155Z,20.31
2018-03-11T01:46:03.782Z,20.28
2018-03-11T01:46:35.413Z,20.31
2018-03-11T01:47:07.035Z,20.13
2018-03-11T01:47:38.662Z,20.32
2018-03-11T01:48:10.290Z,20.33
2018-03-11T01:48:41.913Z,20.34
2018-03-11T01:49:13.542Z,20.33
2018-03-11T01:49:45.174Z,20.33
2018-03-11T01:50:16.854Z,20.33
2018-03-11T01:50:48.487Z,20.34
2018-03-11T01:51:20.110Z,20.32
2018-03-11T01:51:51.739Z,20.33
2018-03-11T01:52:23.366Z,20.33
2018-03-11T01:52:54.995Z,20.32
2018-03-11T01:53:26.622Z,20.33
2018-03-11T01:53:58.254Z,20.32
2018-03-11T01:54:29.886Z,20.31
2018-03-11T01:55:01.513Z,20.34
2018-03-11T01:55:33.182Z,20.34
2018-03-11T01:56:04.810Z,20.33
2018-03-11T01:56:36.438Z,20.33
2018-03-11T01:57:08.062Z,20.34
2018-03-11T01:57:39.685Z,20.33
2018-03-11T01:58:11.310Z,20.21
2018-03-11T01:58:42.939Z,20.35
2018-03-11T01:59:14.566Z,20.35
2018-03-11T01:59:46.214Z,20.38
2018-03-11T02:00:17.887Z,20.36
2018-03-11T02:00:49.510Z,20.38
2018-03-11T02:01:21.185Z,20.37
2018-03-11T02:01:52.815Z,20.36
2018-03-11T02:02:24.446Z,20.35
2018-03-11T02:02:56.075Z,20.34
2018-03-11T02:03:27.701Z,20.35
2018-03-11T02:03:59.322Z,20.36
2018-03-11T02:04:30.956Z,20.36
2018-03-11T02:05:02.590Z,20.35
2018-03-11T02:05:34.217Z,20.36
2018-03-11T02:06:05.898Z,20.35
2018-03-11T02:06:37.522Z,20.35
2018-03-11T02:07:09.145Z,20.35
2018-03-11T02:07:40.770Z,20.34
2018-03-11T02:08:12.390Z,20.32
2018-03-11T02:08:44.014Z,20.32
2018-03-11T02:09:15.642Z,20.31
2018-03-11T02:09:47.266Z,20.27
2018-03-11T02:10:18.895Z,20.29
2018-03-11T02:10:50.572Z,20.27
2018-03-11T02:11:22.446Z,20.25
2018-03-11T02:11:54.072Z,20.25
2018-03-11T02:12:25.706Z,20.27
2018-03-11T02:12:57.332Z,20.28
2018-03-11T02:13:28.958Z,20.26
2018-03-11T02:14:00.594Z,20.25
2018-03-11T02:14:32.219Z,20.26
2018-03-11T02:15:03.846Z,20.25
2018-03-11T02:15:35.478Z,20.24
2018-03-11T02:16:07.114Z,20.26
2018-03-11T02:16:38.778Z,20.29
2018-03-11T02:17:10.433Z,20.27
2018-03-11T02:17:42.053Z,20.27
2018-03-11T02:18:13.674Z,20.27
2018-03-11T02:18:45.302Z,20.26
2018-03-11T02:19:16.931Z,20.26
2018-03-11T02:19:48.554Z,20.27
2018-03-11T02:20:20.182Z,20.28
2018-03-11T02:20:51.806Z,20.29
2018-03-11T02:21:23.430Z,20.29
2018-03-11T02:21:55.102Z,20.30
2018-03-11T02:22:26.730Z,20.26
2018-03-11T02:22:58.354Z,20.25
2018-03-11T02:23:29.982Z,20.27
2018-03-11T02:24:01.709Z,20.25
2018-03-11T02:24:33.378Z,20.28
2018-03-11T02:25:05.002Z,20.26
2018-03-11T02:25:36.674Z,20.27
2018-03-11T02:26:08.301Z,20.28
2018-03-11T02:26:39.921Z,20.28
2018-03-11T02:27:11.543Z,20.27
2018-03-11T02:27:43.165Z,20.29
2018-03-11T02:28:14.787Z,20.29
2018-03-11T02:28:46.419Z,20.29
2018-03-11T02:29:18.086Z,20.31
2018-03-11T02:29:49.715Z,20.26
2018-03-11T02:30:21.339Z,20.25
2018-03-11T02:30:52.963Z,20.25
2018-03-11T02:31:24.631Z,20.24
2018-03-11T02:31:56.259Z,20.21
2018-03-11T02:32:27.895Z,20.23
2018-03-11T02:32:59.518Z,20.23
2018-03-11T02:33:31.195Z,20.22
2018-03-11T02:34:02.827Z,20.22
2018-03-11T02:34:34.458Z,20.22
2018-03-11T02:35:06.082Z,20.24
2018-03-11T02:35:37.711Z,20.25
2018-03-11T02:36:09.334Z,20.22
2018-03-11T02:36:41.003Z,20.24
2018-03-11T02:37:12.626Z,20.24
2018-03-11T02:37:44.250Z,20.24
2018-03-11T02:38:15.870Z,20.24
2018-03-11T02:38:47.495Z,20.24
2018-03-11T02:39:19.118Z,20.25
2018-03-11T02:39:50.748Z,20.28
2018-03-11T02:40:22.406Z,20.28
2018-03-11T02:40:54.074Z,20.25
2018-03-11T02:41:25.699Z,20.23
2018-03-11T02:41:57.371Z,20.24
2018-03-11T02:42:28.993Z,20.25
2018-03-11T02:43:00.615Z,20.24
2018-03-11T02:43:32.243Z,20.22
2018-03-11T02:44:03.878Z,20.23
2018-03-11T02:44:35.550Z,20.21
2018-03-11T02:45:07.179Z,20.21
2018-03-11T02:45:38.802Z,20.24
2018-03-11T02:46:10.427Z,20.22
2018-03-11T02:46:42.055Z,20.23
2018-03-11T02:47:13.727Z,20.23
2018-03-11T02:47:45.354Z,20.23
2018-03-11T02:48:17.018Z,20.24
2018-03-11T02:48:48.652Z,20.26
2018-03-11T02:49:20.289Z,20.29
2018-03-11T02:49:51.930Z,20.29
2018-03-11T02:50:23.559Z,20.27
2018-03-11T02:50:55.186Z,20.30
2018-03-11T02:51:26.805Z,20.30
2018-03-11T02:51:58.432Z,20.30
2018-03-11T02:52:30.067Z,20.34
2018-03-11T02:53:01.691Z,20.36
2018-03-11T02:53:33.326Z,20.34
2018-03-11T02:54:04.949Z,20.34
2018-03-11T02:54:36.622Z,20.36
2018-03-11T02:55:08.243Z,20.38
2018-03-11T02:55:39.879Z,20.38
2018-03-11T02:56:11.542Z,20.40
2018-03-11T02:56:43.171Z,20.38
2018-03-11T02:57:14.798Z,20.38
2018-03-11T02:57:46.423Z,20.38
2018-03-11T02:58:18.058Z,20.39
2018-03-11T02:58:49.690Z,20.37
2018-03-11T02:59:21.317Z,20.37
2018-03-11T02:59:52.942Z,20.38
2018-03-11T03:00:24.614Z,20.36
2018-03-11T03:00:56.242Z,20.35
2018-03-11T03:01:27.874Z,20.33
2018-03-11T03:01:59.502Z,20.30
2018-03-11T03:02:31.134Z,20.29
2018-03-11T03:03:02.766Z,20.26
2018-03-11T03:03:34.390Z,20.26
2018-03-11T03:04:06.019Z,20.28
2018-03-11T03:04:37.642Z,20.29
2018-03-11T03:05:09.270Z,20.31
2018-03-11T03:05:40.954Z,20.30
2018-03-11T03:06:12.583Z,20.29
2018-03-11T03:06:44.206Z,20.28
2018-03-11T03:07:15.855Z,20.29
2018-03-11T03:07:47.478Z,20.30
2018-03-11T03:08:19.098Z,20.29
2018-03-11T03:08:50.723Z,20.29
2018-03-11T03:09:22.349Z,20.30
2018-03-11T03:09:53.971Z,20.31
2018-03-11T03:10:25.598Z,20.31
2018-03-11T03:10:57.291Z,20.29
2018-03-11T03:11:28.919Z,20.31
2018-03-11T03:12:00.546Z,20.29
2018-03-11T03:12:32.174Z,20.30
2018-03-11T03:13:03.803Z,20.28
2018-03-11T03:13:35.426Z,20.28
2018-03-11T03:14:07.050Z,20.29
2018-03-11T03:14:38.670Z,20.28
2018-03-11T03:15:10.298Z,20.26
2018-03-11T03:15:41.931Z,20.26
2018-03-11T03:16:13.593Z,20.23
2018-03-11T03:16:45.213Z,20.27
2018-03-11T03:17:16.842Z,20.29
2018-03-11T03:17:48.470Z,20.29
2018-03-11T03:18:20.098Z,20.30
2018-03-11T03:18:51.726Z,20.30
2018-03-11T03:19:23.346Z,20.31
2018-03-11T03:19:54.978Z,20.32
2018-03-11T03:20:26.610Z,20.33
2018-03-11T03:20:58.239Z,20.32
2018-03-11T03:21:29.870Z,20.31
2018-03-11T03:22:01.502Z,20.29
2018-03-11T03:22:33.121Z,20.31
2018-03-11T03:23:04.794Z,20.29
2018-03-11T03:23:36.426Z,20.28
2018-03-11T03:24:08.062Z,20.27
2018-03-11T03:24:39.689Z,20.28
2018-03-11T03:25:11.359Z,20.28
2018-03-11T03:25:42.983Z,20.27
2018-03-11T03:26:14.606Z,20.30
2018-03-11T03:26:46.235Z,20.29
2018-03-11T03:27:17.858Z,20.26
2018-03-11T03:27:49.483Z,20.27
2018-03-11T03:28:21.154Z,20.24
2018-03-11T03:28:52.777Z,20.22
2018-03-11T03:29:24.401Z,20.24
2018-03-11T03:29:56.026Z,20.23
2018-03-11T03:30:27.649Z,20.20
2018-03-11T03:30:59.326Z,20.20
2018-03-11T03:31:30.951Z,20.21
2018-03-11T03:32:02.590Z,20.24
2018-03-11T03:32:34.218Z,20.23
2018-03-11T03:33:05.848Z,20.21
2018-03-11T03:33:37.478Z,20.21
2018-03-11T03:34:09.110Z,20.23
2018-03-11T03:34:40.739Z,20.22
2018-03-11T03:35:12.370Z,20.25
2018-03-11T03:35:43.998Z,20.24
2018-03-11T03:36:15.626Z,20.22
2018-03-11T03:36:47.255Z,20.24
2018-03-11T03:37:18.938Z,20.22
2018-03-11T03:37:50.567Z,20.19
2018-03-11T03:38:22.195Z,20.20
2018-03-11T03:38:53.834Z,20.22
2018-03-11T03:39:25.458Z,20.22
2018-03-11T03:39:57.082Z,20.24
2018-03-11T03:40:28.711Z,20.26
2018-03-11T03:41:00.337Z,20.25
2018-03-11T03:41:31.966Z,20.29
2018-03-11T03:42:03.589Z,20.27
2018-03-11T03:42:35.254Z,20.27
2018-03-11T03:43:06.874Z,20.27
2018-03-11T03:43:38.502Z,20.29
2018-03-11T03:44:10.177Z,20.30
2018-03-11T03:44:41.802Z,20.30
2018-03-11T03:45:13.421Z,20.28
2018-03-11T03:45:45.042Z,20.27
2018-03-11T03:46:16.665Z,20.29
2018-03-11T03:46:48.290Z,20.29
2018-03-11T03:47:19.915Z,20.25
2018-03-11T03:47:51.538Z,20.27
2018-03-11T03:48:23.178Z,20.27
2018-03-11T03:48:54.850Z,20.26
2018-03-11T03:49:26.498Z,20.26
2018-03-11T03:49:58.177Z,20.24
2018-03-11T03:50:29.801Z,20.23
2018-03-11T03:51:01.426Z,20.21
2018-03-11T03:51:33.054Z,20.22
2018-03-11T03:52:04.682Z,20.24
2018-03-11T03:52:36.301Z,20.23
2018-03-11T03:53:07.926Z,20.21
2018-03-11T03:53:39.549Z,20.22
2018-03-11T03:54:11.178Z,20.23
2018-03-11T03:54:42.806Z,20.25
2018-03-11T03:55:14.478Z,20.23
2018-03-11T03:55:46.101Z,20.23
2018-03-11T03:56:17.730Z,20.21
2018-03-11T03:56:49.350Z,20.21
2018-03-11T03:57:21.050Z,20.20
2018-03-11T03:57:52.679Z,20.22
2018-03-11T03:58:24.302Z,20.22
2018-03-11T03:58:55.926Z,20.24
2018-03-11T03:59:27.549Z,20.25
2018-03-11T03:59:59.218Z,20.25
2018-03-11T04:00:30.841Z,20.25
2018-03-11T04:01:02.470Z,20.25
2018-03-11T04:01:34.095Z,20.24
2018-03-11T04:02:05.743Z,20.25
2018-03-11T04:02:37.366Z,20.25
2018-03-11T04:03:09.034Z,20.23
2018-03-11T04:03:40.658Z,20.24
2018-03-11T04:04:12.286Z,20.24
2018-03-11T04:04:43.919Z,20.24
2018-03-11T04:05:15.546Z,20.27
2018-03-11T04:05:47.174Z,20.27
2018-03-11T04:06:18.843Z,20.26
2018-03-11T04:06:50.466Z,20.26
2018-03-11T04:07:22.090Z,20.27
2018-03-11T04:07:53.719Z,20.30
2018-03-11T04:08:25.345Z,20.30
2018-03-11T04:08:56.966Z,20.29
2018-03-11T04:09:28.631Z,20.28
2018-03-11T04:10:00.262Z,20.25
2018-03-11T04:10:31.890Z,20.28
2018-03-11T04:11:03.518Z,20.27
2018-03-11T04:11:35.139Z,20.27
2018-03-11T04:12:06.762Z,20.26
2018-03-11T04:12:38.394Z,20.29
2018-03-11T04:13:10.018Z,20.29
2018-03-11T04:13:41.642Z,20.29
2018-03-11T04:14:13.265Z,20.29
2018-03-11T04:14:44.930Z,20.30
2018-03-11T04:15:16.558Z,20.28
2018-03-11T04:15:48.182Z,20.28
2018-03-11T04:16:19.809Z,20.27
2018-03-11T04:16:51.490Z,20.28
2018-03-11T04:17:23.118Z,20.26
2018-03-11T04:17:54.750Z,20.25
2018-03-11T04:18:26.459Z,20.27
2018-03-11T04:18:58.067Z,20.28
2018-03-11T04:19:29.713Z,20.28
2018-03-11T04:20:01.342Z,20.29
2018-03-11T04:20:32.974Z,20.31
2018-03-11T04:21:04.598Z,20.31
2018-03-11T04:21:36.225Z,20.31
2018-03-11T04:22:07.889Z,20.29
2018-03-11T04:22:39.562Z,20.30
2018-03-11T04:23:11.191Z,20.28
2018-03-11T04:23:42.819Z,20.26
2018-03-11T04:24:14.442Z,20.27
2018-03-11T04:24:46.106Z,20.26
2018-03-11T04:25:17.774Z,20.28
2018-03-11T04:25:49.403Z,20.28
2018-03-11T04:26:21.035Z,20.25
2018-03-11T04:26:52.662Z,20.28
2018-03-11T04:27:24.291Z,20.30
2018-03-11T04:27:55.918Z,20.32
2018-03-11T04:28:27.546Z,20.31
2018-03-11T04:28:59.174Z,20.30
2018-03-11T04:29:30.798Z,20.29
2018-03-11T04:30:02.488Z,20.24
2018-03-11T04:30:34.114Z,20.24
2018-03-11T04:31:05.741Z,20.26
2018-03-11T04:31:37.362Z,20.26
2018-03-11T04:32:08.986Z,20.26
2018-03-11T04:32:40.605Z,20.28
2018-03-11T04:33:12.225Z,20.30
2018-03-11T04:33:43.850Z,20.30
2018-03-11T04:34:15.477Z,20.29
2018-03-11T04:34:47.102Z,20.27
2018-03-11T04:35:18.774Z,20.25
2018-03-11T04:35:50.407Z,20.25
2018-03-11T04:36:22.030Z,20.29
2018-03-11T04:36:53.655Z,20.26
2018-03-11T04:37:25.285Z,20.25
2018-03-11T04:37:57.171Z,20.25
2018-03-11T04:38:28.794Z,20.24
2018-03-11T04:39:00.422Z,20.25
2018-03-11T04:39:32.049Z,20.26
2018-03-11T04:40:03.684Z,20.25
2018-03-11T04:40:35.370Z,20.25
2018-03-11T04:41:06.999Z,20.25
2018-03-11T04:41:38.630Z,20.25
2018-03-11T04:42:10.257Z,20.29
2018-03-11T04:42:41.877Z,20.24
2018-03-11T04:43:13.505Z,20.25
2018-03-11T04:43:45.131Z,20.23
2018-03-11T04:44:16.755Z,20.23
2018-03-11T04:44:48.383Z,20.20
2018-03-11T04:45:20.010Z,20.22
2018-03-11T04:45:51.634Z,20.23
2018-03-11T04:46:23.261Z,20.21
2018-03-11T04:46:54.889Z,20.20
2018-03-11T04:47:26.514Z,20.19
2018-03-11T04:47:58.142Z,20.15
2018-03-11T04:48:29.769Z,20.16
2018-03-11T04:49:01.434Z,20.13
2018-03-11T04:49:33.063Z,20.13
2018-03-11T04:50:04.694Z,20.12
2018-03-11T04:50:36.322Z,20.15
2018-03-11T04:51:07.950Z,20.14
2018-03-11T04:51:39.578Z,20.02
2018-03-11T04:52:11.202Z,20.13
2018-03-11T04:52:42.831Z,20.09
2018-03-11T04:53:14.515Z,20.12
2018-03-11T04:53:46.198Z,20.07
2018-03-11T04:54:17.830Z,20.11
2018-03-11T04:54:49.458Z,20.09
2018-03-11T04:55:21.086Z,20.10
2018-03-11T04:55:52.714Z,20.11
2018-03-11T04:56:24.342Z,20.10
2018-03-11T04:56:55.961Z,20.09
2018-03-11T04:57:27.591Z,20.07
2018-03-11T04:57:59.217Z,20.07
2018-03-11T04:58:30.841Z,20.07
2018-03-11T04:59:02.506Z,20.09
2018-03-11T04:59:34.182Z,20.08
2018-03-11T05:00:05.815Z,20.08
2018-03-11T05:00:37.445Z,20.07
2018-03-11T05:01:09.065Z,20.06
2018-03-11T05:01:40.694Z,20.07
2018-03-11T05:02:12.318Z,20.08
2018-03-11T05:02:43.941Z,20.07
2018-03-11T05:03:15.570Z,20.07
2018-03-11T05:03:47.189Z,20.08
2018-03-11T05:04:18.813Z,20.08
2018-03-11T05:04:50.481Z,20.08
2018-03-11T05:05:22.102Z,20.09
2018-03-11T05:05:53.722Z,20.08
2018-03-11T05:06:25.393Z,20.08
2018-03-11T05:06:57.014Z,20.07
2018-03-11T05:07:28.641Z,20.07
2018-03-11T05:08:00.274Z,20.06
2018-03-11T05:08:31.907Z,20.07
2018-03-11T05:09:03.557Z,20.08
2018-03-11T05:09:35.186Z,20.09
2018-03-11T05:10:06.813Z,20.09
2018-03-11T05:10:38.438Z,20.09
2018-03-11T05:11:10.062Z,20.11
2018-03-11T05:11:41.742Z,20.12
2018-03-11T05:12:13.375Z,20.10
2018-03-11T05:12:45.002Z,20.10
2018-03-11T05:13:16.629Z,20.09
2018-03-11T05:13:48.258Z,20.09
2018-03-11T05:14:19.882Z,20.09
2018-03-11T05:14:51.565Z,20.09
2018-03-11T05:15:23.166Z,20.11
2018-03-11T05:15:54.789Z,20.13
2018-03-11T05:16:26.410Z,20.12
2018-03-11T05:16:58.172Z,20.13
2018-03-11T05:17:29.802Z,20.13
2018-03-11T05:18:01.431Z,20.14
2018-03-11T05:18:33.054Z,20.13
2018-03-11T05:19:04.682Z,20.14
2018-03-11T05:19:36.305Z,20.15
2018-03-11T05:20:07.930Z,20.18
2018-03-11T05:20:39.555Z,20.17
2018-03-11T05:21:11.185Z,20.17
2018-03-11T05:21:42.814Z,20.16
2018-03-11T05:22:14.487Z,20.15
2018-03-11T05:22:46.114Z,20.15
2018-03-11T05:23:17.743Z,20.16
2018-03-11T05:23:49.366Z,20.18
2018-03-11T05:24:21.008Z,20.18
2018-03-11T05:24:52.641Z,20.19
2018-03-11T05:25:24.266Z,20.20
2018-03-11T05:25:55.899Z,20.18
2018-03-11T05:26:27.530Z,20.19
2018-03-11T05:26:59.211Z,20.20
2018-03-11T05:27:30.837Z,20.20
2018-03-11T05:28:02.465Z,20.21
2018-03-11T05:28:34.094Z,20.21
2018-03-11T05:29:05.718Z,20.21
2018-03-11T05:29:37.342Z,20.20
2018-03-11T05:30:08.975Z,20.22
2018-03-11T05:30:40.606Z,20.19
2018-03-11T05:31:12.230Z,20.20
2018-03-11T05:31:43.853Z,20.23
2018-03-11T05:32:15.522Z,20.21
2018-03-11T05:32:47.146Z,20.24
2018-03-11T05:33:18.770Z,20.23
2018-03-11T05:33:50.442Z,20.24
2018-03-11T05:34:22.066Z,20.24
2018-03-11T05:34:53.694Z,20.24
2018-03-11T05:35:25.323Z,20.24
2018-03-11T05:35:57.035Z,20.24
2018-03-11T05:36:28.663Z,20.25
2018-03-11T05:37:00.295Z,20.26
2018-03-11T05:37:31.918Z,20.28
2018-03-11T05:38:03.538Z,20.27
2018-03-11T05:38:35.166Z,20.28
2018-03-11T05:39:06.840Z,20.28
2018-03-11T05:39:38.462Z,20.28
2018-03-11T05:40:10.090Z,20.30
2018-03-11T05:40:41.715Z,20.29
2018-03-11T05:41:13.342Z,20.29
2018-03-11T05:41:44.974Z,20.32
2018-03-11T05:42:16.593Z,20.28
2018-03-11T05:42:48.234Z,20.29
2018-03-11T05:43:19.914Z,20.28
2018-03-11T05:43:51.542Z,20.24
2018-03-11T05:44:23.166Z,20.25
2018-03-11T05:44:54.797Z,20.24
2018-03-11T05:45:26.428Z,20.26
2018-03-11T05:45:58.050Z,20.25
2018-03-11T05:46:29.673Z,20.26
2018-03-11T05:47:01.307Z,20.28
2018-03-11T05:47:32.929Z,20.30
2018-03-11T05:48:04.558Z,20.28
2018-03-11T05:48:36.235Z,20.28
2018-03-11T05:49:07.863Z,20.29
2018-03-11T05:49:39.495Z,20.26
2018-03-11T05:50:11.117Z,20.25
2018-03-11T05:50:42.741Z,20.26
2018-03-11T05:51:14.366Z,20.25
2018-03-11T05:51:45.998Z,20.26
2018-03-11T05:52:17.630Z,20.26
2018-03-11T05:52:49.254Z,20.26
2018-03-11T05:53:20.888Z,20.28
2018-03-11T05:53:52.564Z,20.28
2018-03-11T05:54:24.190Z,20.26
2018-03-11T05:54:55.813Z,20.24
2018-03-11T05:55:27.434Z,20.26
2018-03-11T05:55:59.066Z,20.28
2018-03-11T05:56:30.742Z,20.26
2018-03-11T05:57:02.371Z,20.25
2018-03-11T05:57:34.002Z,20.26
2018-03-11T05:58:05.625Z,20.22
2018-03-11T05:58:37.250Z,20.24
2018-03-11T05:59:08.874Z,20.22
2018-03-11T05:59:40.501Z,20.20
2018-03-11T06:00:12.130Z,20.23
2018-03-11T06:00:43.753Z,20.22
2018-03-11T06:01:15.373Z,20.20
2018-03-11T06:01:47.050Z,20.21
2018-03-11T06:02:18.678Z,20.21
2018-03-11T06:02:50.305Z,20.18
2018-03-11T06:03:21.938Z,20.21
2018-03-11T06:03:53.567Z,20.21
2018-03-11T06:04:25.207Z,20.21
2018-03-11T06:04:56.829Z,20.20
2018-03-11T06:05:28.453Z,20.21
2018-03-11T06:06:00.083Z,20.20
2018-03-11T06:06:31.710Z,20.19
2018-03-11T06:07:03.339Z,20.18
2018-03-11T06:07:35.001Z,20.17
2018-03-11T06:08:06.692Z,20.16
2018-03-11T06:08:38.291Z,20.15
2018-03-11T06:09:09.919Z,20.15
2018-03-11T06:09:41.546Z,20.16
2018-03-11T06:10:13.173Z,20.16
2018-03-11T06:10:44.802Z,20.11
2018-03-11T06:11:16.426Z,20.13
2018-03-11T06:11:48.110Z,20.14
2018-03-11T06:12:19.739Z,20.11
2018-03-11T06:12:51.370Z,20.12
2018-03-11T06:13:22.998Z,20.12
2018-03-11T06:13:54.626Z,20.12
2018-03-11T06:14:26.255Z,20.14
2018-03-11T06:14:57.882Z,20.15
2018-03-11T06:15:29.506Z,20.15
2018-03-11T06:16:01.261Z,20.16
2018-03-11T06:16:32.894Z,20.14
2018-03-11T06:17:04.601Z,20.12
2018-03-11T06:17:36.226Z,20.12
2018-03-11T06:18:07.846Z,20.12
2018-03-11T06:18:39.474Z,20.10
2018-03-11T06:19:11.182Z,20.11
2018-03-11T06:19:42.814Z,20.07
2018-03-11T06:20:15.204Z,20.10
2018-03-11T06:20:46.843Z,20.12
2018-03-11T06:21:18.477Z,20.13
2018-03-11T06:21:50.114Z,20.10
2018-03-11T06:22:21.791Z,20.12
2018-03-11T06:22:53.425Z,20.11
2018-03-11T06:23:25.055Z,20.10
2018-03-11T06:23:56.678Z,20.10
2018-03-11T06:24:28.310Z,20.09
2018-03-11T06:25:00.898Z,20.10
2018-03-11T06:25:32.523Z,20.17
2018-03-11T06:26:04.182Z,20.17
2018-03-11T06:26:35.818Z,20.16
2018-03-11T06:27:07.450Z,20.14
2018-03-11T06:27:39.073Z,20.12
2018-03-11T06:28:10.702Z,20.06
2018-03-11T06:28:42.331Z,20.12
2018-03-11T06:29:13.957Z,20.13
2018-03-11T06:29:45.581Z,20.11
2018-03-11T06:30:17.320Z,20.11
2018-03-11T06:30:48.874Z,20.10
2018-03-11T06:31:20.554Z,20.10
2018-03-11T06:31:52.230Z,20.10
2018-03-11T06:32:23.911Z,20.09
2018-03-11T06:32:55.514Z,20.09
2018-03-11T06:33:27.293Z,20.09
2018-03-11T06:33:58.922Z,20.06
2018-03-11T06:34:30.611Z,20.05
2018-03-11T06:35:02.250Z,20.08
2018-03-11T06:35:33.886Z,20.11
2018-03-11T06:36:05.505Z,20.09
2018-03-11T06:36:37.234Z,20.10
2018-03-11T06:37:08.965Z,20.12
2018-03-11T06:37:40.594Z,20.13
2018-03-11T06:38:12.235Z,20.14
2018-03-11T06:38:43.858Z,20.11
2018-03-11T06:39:15.486Z,20.12
2018-03-11T06:39:47.115Z,20.12
2018-03-11T06:40:18.742Z,20.13
2018-03-11T06:40:50.365Z,20.13
2018-03-11T06:41:21.998Z,20.13
2018-03-11T06:41:53.622Z,20.11
2018-03-11T06:42:25.246Z,20.12
2018-03-11T06:42:56.869Z,20.11
2018-03-11T06:43:28.494Z,20.11
2018-03-11T06:44:00.229Z,20.10
2018-03-11T06:44:31.915Z,20.12
2018-03-11T06:45:03.543Z,20.13
2018-03-11T06:45:35.170Z,20.12
2018-03-11T06:46:06.934Z,20.13
2018-03-11T06:46:38.566Z,20.16
2018-03-11T06:47:10.198Z,20.17